Time;durP1;ratioP1;P1;durP2;ratioP2;P2;SDS_P1;SDS_P2;PMS_P1;PMS_P2;Temp;Humidity;BMP_temperature;BMP_pressure;BME280_temperature;BME280_humidity;BME280_pressure;Samples;Min_cycle;Max_cycle;Signal;HPM_P1;HPM_P2
2022/04/16 00:00:27;;;;;;;;;;;;;;;22.12;36.35;95091.72;2065702;28;1631;-66
2022/04/16 00:01:29;;;;;;;;;;;;;;;22.11;36.06;95093.59;2065978;28;1714;-67
2022/04/16 00:02:31;;;;;;;;;;;;;;;22.11;35.94;95090.91;2049724;28;1691;-66
2022/04/16 00:03:33;;;;;;;;;;;;;;;22.15;36.36;95090.47;2055452;28;1663;-68
2022/04/16 00:04:35;;;;;;;;;;;;;;;22.13;36.37;95093.34;2064680;28;1517;-66
2022/04/16 00:05:37;;;;;;;;;;;;;;;22.13;36.24;95094.16;2057381;28;1509;-67
2022/04/16 00:06:38;;;;;;;;;;;;;;;22.13;36.29;95091.47;2057437;28;1761;-66
2022/04/16 00:07:41;;;;;;;;;;;;;;;22.12;36.29;95094.41;2057903;28;1135;-66
2022/04/16 00:08:42;;;;;;;;;;;;;;;22.12;36.34;95095.22;2058305;28;1106;-66
2022/04/16 00:09:44;;;;;;;;;;;;;;;22.13;36.14;95099.50;2058270;28;1939;-66
2022/04/16 00:10:46;;;;;;;;;;;;;;;22.12;36.15;95097.88;2057801;28;1061;-67
2022/04/16 00:11:48;;;;;;;;;;;;;;;22.11;36.52;95096.25;2058173;28;1105;-67
2022/04/16 00:12:49;;;;;;;;;;;;;;;22.12;36.36;95092.53;2057974;28;1122;-66
2022/04/16 00:13:51;;;;;;;;;;;;;;;22.13;36.01;95088.81;2059306;28;1458;-66
2022/04/16 00:14:53;;;;;;;;;;;;;;;22.12;36.25;95092.53;2057660;28;1060;-65
2022/04/16 00:15:55;;;;;;;;;;;;;;;22.13;36.22;95088.00;2061131;28;1755;-66
2022/04/16 00:16:58;;;;;;;;;;;;;;;22.15;36.30;95090.47;2061135;28;1532;-67
2022/04/16 00:18:00;;;;;;;;;;;;;;;22.12;36.45;95089.84;2065534;28;1474;-66
2022/04/16 00:19:01;;;;;;;;;;;;;;;22.13;36.45;95078.09;2066233;28;1906;-67
2022/04/16 00:20:07;;;;;;;;;;;;;;;22.13;36.30;95082.66;2057216;28;1105;-66
2022/04/16 00:21:08;;;;;;;;;;;;;;;22.11;36.52;95090.91;2058326;28;1064;-66
2022/04/16 00:22:12;;;;;;;;;;;;;;;22.11;36.56;95087.41;2065522;28;1052;-66
2022/04/16 00:23:14;;;;;;;;;;;;;;;22.12;36.54;95091.72;2066172;28;1132;-66
2022/04/16 00:24:15;;;;;;;;;;;;;;;22.13;36.49;95088.81;2065545;28;1069;-67
2022/04/16 00:25:17;;;;;;;;;;;;;;;22.12;36.39;95083.69;2065132;28;1009;-67
2022/04/16 00:26:20;;;;;;;;;;;;;;;22.12;36.50;95087.19;2066255;28;1449;-67
2022/04/16 00:27:23;;;;;;;;;;;;;;;22.13;36.55;95094.16;2065950;28;1005;-68
2022/04/16 00:28:27;;;;;;;;;;;;;;;22.15;36.38;95085.13;2049332;28;1752;-66
2022/04/16 00:29:30;;;;;;;;;;;;;;;22.12;36.68;95087.19;2057397;28;1220;-66
2022/04/16 00:30:37;;;;;;;;;;;;;;;22.12;36.81;95092.53;2073916;28;1778;-66
2022/04/16 00:31:39;;;;;;;;;;;;;;;22.12;36.71;95091.72;2071980;28;1653;-67
2022/04/16 00:32:40;;;;;;;;;;;;;;;22.10;36.93;95091.94;2072441;28;1684;-67
2022/04/16 00:33:42;;;;;;;;;;;;;;;22.12;36.73;95081.81;2074387;28;1121;-67
2022/04/16 00:34:45;;;;;;;;;;;;;;;22.12;37.00;95087.19;2065587;28;1006;-67
2022/04/16 00:35:47;;;;;;;;;;;;;;;22.15;37.07;95087.78;2059526;28;1689;-66
2022/04/16 00:36:48;;;;;;;;;;;;;;;22.13;36.72;95088.81;2065900;28;1160;-66
2022/04/16 00:37:50;;;;;;;;;;;;;;;22.13;37.10;95088.81;2065730;28;1068;-66
2022/04/16 00:38:52;;;;;;;;;;;;;;;22.13;36.94;95088.81;2063086;28;2027;-68
2022/04/16 00:39:53;;;;;;;;;;;;;;;22.12;36.91;95089.84;2060308;28;1044;-67
2022/04/16 00:41:00;;;;;;;;;;;;;;;22.11;37.19;95090.91;2057399;28;1723;-66
2022/04/16 00:42:01;;;;;;;;;;;;;;;22.13;36.93;95086.13;2064028;28;1759;-66
2022/04/16 00:43:05;;;;;;;;;;;;;;;22.13;37.17;95088.00;2065170;28;1107;-66
2022/04/16 00:44:06;;;;;;;;;;;;;;;22.15;37.05;95083.25;2065923;28;1667;-66
2022/04/16 00:45:08;;;;;;;;;;;;;;;22.15;37.21;95087.78;2065164;28;994;-66
2022/04/16 00:46:10;;;;;;;;;;;;;;;22.16;37.22;95086.75;2065608;28;1061;-66
2022/04/16 00:47:12;;;;;;;;;;;;;;;22.15;36.97;95087.78;2074022;28;1615;-66
2022/04/16 00:48:14;;;;;;;;;;;;;;;22.12;37.37;95081.81;2073979;28;1173;-66
2022/04/16 00:49:16;;;;;;;;;;;;;;;22.13;37.32;95090.66;2074306;28;1015;-64
2022/04/16 00:50:17;;;;;;;;;;;;;;;22.12;37.47;95078.34;2070243;28;1097;-66
2022/04/16 00:51:19;;;;;;;;;;;;;;;22.11;37.47;95080.19;2069871;28;1110;-65
2022/04/16 00:52:24;;;;;;;;;;;;;;;22.12;37.50;95079.16;2073920;28;1769;-65
2022/04/16 00:53:27;;;;;;;;;;;;;;;22.11;37.36;95074.84;2074336;28;982;-65
2022/04/16 00:54:29;;;;;;;;;;;;;;;22.11;37.65;95072.16;2065422;28;1508;-65
2022/04/16 00:55:34;;;;;;;;;;;;;;;22.11;37.67;95072.16;2064337;28;1081;-66
2022/04/16 00:56:36;;;;;;;;;;;;;;;22.12;37.52;95076.47;2072119;28;1717;-66
2022/04/16 00:57:39;;;;;;;;;;;;;;;22.12;37.53;95064.97;2073845;28;1164;-65
2022/04/16 00:58:41;;;;;;;;;;;;;;;22.12;37.73;95073.81;2074104;28;1906;-65
2022/04/16 00:59:42;;;;;;;;;;;;;;;22.13;37.61;95066.59;2074145;28;1497;-65
2022/04/16 01:00:44;;;;;;;;;;;;;;;22.13;37.69;95067.41;2074334;28;1048;-65
2022/04/16 01:01:45;;;;;;;;;;;;;;;22.13;37.63;95072.75;2069944;28;1151;-65
2022/04/16 01:02:49;;;;;;;;;;;;;;;22.12;37.52;95068.44;2068964;28;1264;-65
2022/04/16 01:03:51;;;;;;;;;;;;;;;22.11;37.61;95069.50;2074162;28;1006;-66
2022/04/16 01:04:52;;;;;;;;;;;;;;;22.12;37.73;95064.97;2074060;28;1164;-65
2022/04/16 01:05:55;;;;;;;;;;;;;;;22.12;37.63;95057.75;2065120;28;1360;-65
2022/04/16 01:06:57;;;;;;;;;;;;;;;22.12;37.64;95062.28;2065693;28;1274;-65
2022/04/16 01:07:59;;;;;;;;;;;;;;;22.12;37.83;95060.41;2074192;28;1385;-65
2022/04/16 01:09:01;;;;;;;;;;;;;;;22.11;37.45;95064.16;2065936;28;1519;-65
2022/04/16 01:10:02;;;;;;;;;;;;;;;22.12;37.53;95060.41;2069315;28;1722;-67
2022/04/16 01:11:04;;;;;;;;;;;;;;;22.13;37.50;95059.38;2073969;28;1093;-67
2022/04/16 01:12:06;;;;;;;;;;;;;;;22.15;37.40;95058.34;2074046;28;1180;-66
2022/04/16 01:13:08;;;;;;;;;;;;;;;22.15;37.46;95061.84;2063876;28;1097;-66
2022/04/16 01:14:10;;;;;;;;;;;;;;;22.13;37.84;95061.22;2052442;28;1093;-67
2022/04/16 01:15:13;;;;;;;;;;;;;;;22.11;37.66;95064.16;2057294;28;1673;-71
2022/04/16 01:16:15;;;;;;;;;;;;;;;22.11;37.91;95064.16;2057014;28;1186;-65
2022/04/16 01:17:17;;;;;;;;;;;;;;;22.12;37.70;95059.59;2057400;28;1101;-66
2022/04/16 01:18:20;;;;;;;;;;;;;;;22.11;37.78;95058.78;2057103;28;962;-66
2022/04/16 01:19:22;;;;;;;;;;;;;;;22.11;37.84;95063.34;2057165;28;1981;-66
2022/04/16 01:20:23;;;;;;;;;;;;;;;22.11;37.89;95064.16;2057701;28;1150;-65
2022/04/16 01:21:25;;;;;;;;;;;;;;;22.11;37.87;95063.34;2057849;28;1161;-66
2022/04/16 01:22:29;;;;;;;;;;;;;;;22.10;37.63;95059.81;2060509;28;1750;-64
2022/04/16 01:23:30;;;;;;;;;;;;;;;22.09;37.80;95060.88;2057248;28;1655;-67
2022/04/16 01:24:34;;;;;;;;;;;;;;;22.10;37.65;95059.00;2052205;28;1490;-66
2022/04/16 01:25:36;;;;;;;;;;;;;;;22.10;38.04;95064.34;2052884;28;1239;-66
2022/04/16 01:26:38;;;;;;;;;;;;;;;22.10;37.81;95065.16;2065532;28;1122;-66
2022/04/16 01:27:43;;;;;;;;;;;;;;;22.09;37.73;95065.41;2057039;28;1086;-66
2022/04/16 01:28:45;;;;;;;;;;;;;;;22.10;37.74;95064.34;2057330;28;1046;-66
2022/04/16 01:29:48;;;;;;;;;;;;;;;22.10;37.77;95064.34;2057038;28;1130;-67
2022/04/16 01:30:49;;;;;;;;;;;;;;;22.09;37.92;95065.41;2066728;28;1733;-67
2022/04/16 01:31:51;;;;;;;;;;;;;;;22.07;38.07;95065.59;2056063;28;1153;-66
2022/04/16 01:32:53;;;;;;;;;;;;;;;22.09;37.78;95071.56;2061049;28;1717;-66
2022/04/16 01:33:54;;;;;;;;;;;;;;;22.08;37.95;95064.59;2065177;28;1509;-68
2022/04/16 01:34:56;;;;;;;;;;;;;;;22.09;37.88;95065.41;2057206;28;1077;-66
2022/04/16 01:35:58;;;;;;;;;;;;;;;22.09;37.93;95065.41;2061404;28;1074;-66
2022/04/16 01:37:02;;;;;;;;;;;;;;;22.09;37.79;95065.41;2067351;28;1584;-64
2022/04/16 01:38:04;;;;;;;;;;;;;;;22.10;37.96;95067.84;2071856;28;1774;-66
2022/04/16 01:39:07;;;;;;;;;;;;;;;22.11;38.07;95057.97;2073190;28;1902;-66
2022/04/16 01:40:10;;;;;;;;;;;;;;;22.15;37.91;95064.50;2073632;28;1113;-65
2022/04/16 01:41:11;;;;;;;;;;;;;;;22.13;37.84;95067.41;2073852;28;1014;-65
2022/04/16 01:42:13;;;;;;;;;;;;;;;22.12;38.02;95068.44;2064526;28;1161;-65
2022/04/16 01:43:14;;;;;;;;;;;;;;;22.12;37.85;95070.31;2057190;28;1180;-65
2022/04/16 01:44:16;;;;;;;;;;;;;;;22.10;37.99;95072.38;2065085;28;1156;-66
2022/04/16 01:45:18;;;;;;;;;;;;;;;22.09;37.88;95076.91;2064579;28;1113;-66
2022/04/16 01:46:21;;;;;;;;;;;;;;;22.09;38.12;95082.28;2065036;28;1239;-66
2022/04/16 01:47:22;;;;;;;;;;;;;;;22.09;37.94;95076.91;2052889;28;985;-66
2022/04/16 01:48:28;;;;;;;;;;;;;;;22.09;38.14;95076.09;2052682;28;994;-65
2022/04/16 01:49:30;;;;;;;;;;;;;;;22.08;38.09;95080.66;2065734;28;978;-66
2022/04/16 01:50:32;;;;;;;;;;;;;;;22.08;38.09;95072.63;2066621;28;1544;-66
2022/04/16 01:51:33;;;;;;;;;;;;;;;22.09;38.08;95084.13;2056624;28;1494;-66
2022/04/16 01:52:35;;;;;;;;;;;;;;;22.08;37.86;95074.44;2062862;28;1627;-66
2022/04/16 01:53:37;;;;;;;;;;;;;;;22.08;37.83;95075.28;2065551;28;1176;-66
2022/04/16 01:54:39;;;;;;;;;;;;;;;22.07;37.89;95073.63;2066400;28;1730;-66
2022/04/16 01:55:41;;;;;;;;;;;;;;;22.07;37.84;95072.81;2065684;28;1027;-66
2022/04/16 01:56:42;;;;;;;;;;;;;;;22.08;38.02;95077.13;2065735;28;1778;-66
2022/04/16 01:57:44;;;;;;;;;;;;;;;22.07;37.99;95075.50;2065474;28;1031;-66
2022/04/16 01:58:46;;;;;;;;;;;;;;;22.08;37.83;95074.44;2061302;28;1156;-66
2022/04/16 01:59:48;;;;;;;;;;;;;;;22.08;37.86;95075.28;2060834;28;1906;-66
2022/04/16 02:00:49;;;;;;;;;;;;;;;22.07;37.58;95073.63;2071287;28;1635;-66
2022/04/16 02:01:51;;;;;;;;;;;;;;;22.08;37.91;95071.78;2064460;28;1114;-66
2022/04/16 02:02:53;;;;;;;;;;;;;;;22.06;37.80;95069.34;2057275;28;1057;-66
2022/04/16 02:03:54;;;;;;;;;;;;;;;22.06;37.96;95069.34;2053324;28;1228;-65
2022/04/16 02:04:56;;;;;;;;;;;;;;;22.08;37.70;95074.44;2057065;28;1109;-67
2022/04/16 02:05:58;;;;;;;;;;;;;;;22.07;37.85;95073.63;2056976;28;1573;-66
2022/04/16 02:06:59;;;;;;;;;;;;;;;22.07;37.86;95065.59;2058098;28;1774;-66
2022/04/16 02:08:01;;;;;;;;;;;;;;;22.08;37.75;95074.44;2060773;28;1678;-67
2022/04/16 02:09:03;;;;;;;;;;;;;;;22.07;37.98;95073.63;2065150;28;1172;-66
2022/04/16 02:10:05;;;;;;;;;;;;;;;22.07;37.69;95072.81;2065598;28;1711;-66
2022/04/16 02:11:07;;;;;;;;;;;;;;;22.08;37.78;95074.44;2069546;28;1160;-66
2022/04/16 02:12:08;;;;;;;;;;;;;;;22.07;37.82;95078.16;2073444;28;1015;-67
2022/04/16 02:13:10;;;;;;;;;;;;;;;22.05;37.70;95070.38;2064528;28;1295;-65
2022/04/16 02:14:11;;;;;;;;;;;;;;;22.06;38.01;95081.91;2065316;28;1053;-65
2022/04/16 02:15:13;;;;;;;;;;;;;;;22.06;37.80;95072.00;2073814;28;1088;-65
2022/04/16 02:16:15;;;;;;;;;;;;;;;22.06;37.94;95073.88;2064387;28;1166;-66
2022/04/16 02:17:17;;;;;;;;;;;;;;;22.07;37.80;95084.34;2064826;28;1797;-66
2022/04/16 02:18:19;;;;;;;;;;;;;;;22.06;37.93;95080.03;2073610;28;1180;-65
2022/04/16 02:19:21;;;;;;;;;;;;;;;22.07;37.79;95076.31;2073325;28;1979;-65
2022/04/16 02:20:23;;;;;;;;;;;;;;;22.06;38.16;95076.53;2073489;28;1101;-65
2022/04/16 02:21:25;;;;;;;;;;;;;;;22.07;38.16;95080.84;2061480;28;1085;-65
2022/04/16 02:22:26;;;;;;;;;;;;;;;22.06;37.95;95074.69;2051914;28;1751;-63
2022/04/16 02:23:28;;;;;;;;;;;;;;;22.06;38.13;95077.34;2056786;28;1785;-64
2022/04/16 02:24:29;;;;;;;;;;;;;;;22.07;38.29;95073.63;2065742;28;1052;-64
2022/04/16 02:25:33;;;;;;;;;;;;;;;22.07;38.25;95076.31;2065477;28;1156;-64
2022/04/16 02:26:34;;;;;;;;;;;;;;;22.08;38.12;95079.81;2057049;28;1113;-66
2022/04/16 02:27:36;;;;;;;;;;;;;;;22.07;38.23;95079.00;2056992;28;1041;-66
2022/04/16 02:28:38;;;;;;;;;;;;;;;22.07;38.50;95079.00;2065881;28;982;-65
2022/04/16 02:29:39;;;;;;;;;;;;;;;22.08;38.22;95077.97;2070555;28;1482;-64
2022/04/16 02:30:41;;;;;;;;;;;;;;;22.07;38.32;95073.63;2065004;28;1188;-64
2022/04/16 02:31:44;;;;;;;;;;;;;;;22.07;38.29;95079.00;2065163;28;1037;-64
2022/04/16 02:32:47;;;;;;;;;;;;;;;22.08;38.40;95079.81;2070701;28;1748;-65
2022/04/16 02:33:49;;;;;;;;;;;;;;;22.06;38.55;95082.72;2069825;28;1434;-64
2022/04/16 02:34:52;;;;;;;;;;;;;;;22.06;38.38;95082.72;2073681;28;1117;-64
2022/04/16 02:35:53;;;;;;;;;;;;;;;22.07;38.45;95080.84;2073531;28;1157;-64
2022/04/16 02:36:58;;;;;;;;;;;;;;;22.06;38.50;95074.69;2072214;28;1618;-64
2022/04/16 02:37:59;;;;;;;;;;;;;;;22.06;38.50;95074.69;2069274;28;1129;-64
2022/04/16 02:39:01;;;;;;;;;;;;;;;22.08;38.42;95077.13;2057447;28;1870;-65
2022/04/16 02:40:03;;;;;;;;;;;;;;;22.07;38.33;95084.34;2064789;28;1995;-65
2022/04/16 02:41:05;;;;;;;;;;;;;;;22.07;38.28;95073.63;2064520;28;1655;-66
2022/04/16 02:42:06;;;;;;;;;;;;;;;22.06;38.56;95074.69;2063816;28;1687;-65
2022/04/16 02:43:08;;;;;;;;;;;;;;;22.06;38.53;95071.19;2074173;28;1346;-66
2022/04/16 02:47:06;;;;;;;;;;;;;;;22.09;38.57;95076.91;2075239;28;994;-65
2022/04/16 02:48:08;;;;;;;;;;;;;;;22.08;38.41;95079.81;2066505;28;1244;-66
2022/04/16 02:49:10;;;;;;;;;;;;;;;22.07;38.63;95073.63;2066379;28;1762;-66
2022/04/16 02:50:12;;;;;;;;;;;;;;;22.08;38.61;95080.66;2064400;28;1748;-66
2022/04/16 02:51:13;;;;;;;;;;;;;;;22.07;38.47;95079.00;2066044;28;1784;-67
2022/04/16 02:52:15;;;;;;;;;;;;;;;22.07;38.35;95068.28;2072430;28;1749;-66
2022/04/16 02:53:17;;;;;;;;;;;;;;;22.11;38.61;95069.50;2066546;28;1345;-67
2022/04/16 02:54:18;;;;;;;;;;;;;;;22.15;38.45;95071.72;2066995;28;1057;-64
2022/04/16 02:55:20;;;;;;;;;;;;;;;22.16;38.33;95068.00;2067336;28;1524;-66
2022/04/16 02:56:21;;;;;;;;;;;;;;;22.16;38.40;95076.03;2069908;28;1118;-66
2022/04/16 02:57:23;;;;;;;;;;;;;;;22.14;38.26;95073.59;2069887;28;1860;-65
2022/04/16 02:58:25;;;;;;;;;;;;;;;22.12;38.22;95076.47;2066838;28;1074;-65
2022/04/16 02:59:27;;;;;;;;;;;;;;;22.11;38.27;95068.69;2067036;28;1040;-65
2022/04/16 03:00:29;;;;;;;;;;;;;;;22.10;38.56;95075.88;2066090;28;1903;-66
2022/04/16 03:01:30;;;;;;;;;;;;;;;22.15;38.42;95071.72;2066939;28;1071;-66
2022/04/16 03:02:32;;;;;;;;;;;;;;;22.14;38.44;95078.94;2058050;28;1090;-66
2022/04/16 03:03:34;;;;;;;;;;;;;;;22.12;38.35;95076.47;2058347;28;1090;-66
2022/04/16 03:04:35;;;;;;;;;;;;;;;22.11;38.45;95074.84;2066854;28;1018;-66
2022/04/16 03:05:37;;;;;;;;;;;;;;;22.10;38.32;95078.53;2066864;28;1054;-66
2022/04/16 03:06:38;;;;;;;;;;;;;;;22.09;38.33;95082.28;2062526;28;1058;-66
2022/04/16 03:07:40;;;;;;;;;;;;;;;22.09;38.38;95078.78;2061846;28;1224;-66
2022/04/16 03:08:42;;;;;;;;;;;;;;;22.10;38.40;95077.72;2066631;28;1983;-66
2022/04/16 03:09:43;;;;;;;;;;;;;;;22.08;38.35;95082.47;2071162;28;1895;-66
2022/04/16 03:10:45;;;;;;;;;;;;;;;22.08;38.39;95080.66;2066055;28;1674;-66
2022/04/16 03:11:46;;;;;;;;;;;;;;;22.10;38.59;95083.09;2055749;28;1174;-66
2022/04/16 03:12:51;;;;;;;;;;;;;;;22.09;38.66;95082.28;2058233;28;991;-66
2022/04/16 03:13:53;;;;;;;;;;;;;;;22.09;38.53;95082.28;2057876;28;1316;-66
2022/04/16 03:17:35;;;;;;;;;;;;;;;22.09;38.43;95082.28;2066436;28;1148;-66
2022/04/16 03:18:37;;;;;;;;;;;;;;;22.10;38.43;95089.25;2050217;28;1563;-67
2022/04/16 03:19:39;;;;;;;;;;;;;;;22.11;38.42;95082.06;2057887;28;1333;-66
2022/04/16 03:20:42;;;;;;;;;;;;;;;22.10;38.40;95078.53;2063858;28;1898;-66
2022/04/16 03:21:44;;;;;;;;;;;;;;;22.10;38.50;95086.56;2065086;28;1730;-66
2022/04/16 03:22:45;;;;;;;;;;;;;;;22.11;38.61;95085.56;2065779;28;999;-66
2022/04/16 03:23:47;;;;;;;;;;;;;;;22.12;38.38;95079.16;2066848;28;1053;-62
2022/04/16 03:24:49;;;;;;;;;;;;;;;22.18;38.58;95090.03;2070302;28;1643;-65
2022/04/16 03:25:53;;;;;;;;;;;;;;;22.19;38.32;95087.09;2066140;28;1006;-65
2022/04/16 03:26:55;;;;;;;;;;;;;;;22.18;38.33;95076.66;2064123;28;1301;-66
2022/04/16 03:27:57;;;;;;;;;;;;;;;22.17;38.40;95083.00;2066632;28;1061;-67
2022/04/16 03:28:58;;;;;;;;;;;;;;;22.22;38.40;95081.31;2066290;28;1565;-67
2022/04/16 03:30:01;;;;;;;;;;;;;;;22.21;38.60;95086.91;2063548;28;1546;-67
2022/04/16 03:31:04;;;;;;;;;;;;;;;22.21;38.77;95089.59;2074719;28;1258;-68
2022/04/16 03:32:06;;;;;;;;;;;;;;;22.21;38.56;95097.63;2075127;28;1019;-67
2022/04/16 03:33:11;;;;;;;;;;;;;;;22.22;38.49;95093.88;2075094;28;1353;-67
2022/04/16 03:34:13;;;;;;;;;;;;;;;22.21;38.80;95090.41;2074884;28;1513;-67
2022/04/16 03:35:16;;;;;;;;;;;;;;;22.22;38.95;95091.22;2066212;28;1113;-67
2022/04/16 03:36:18;;;;;;;;;;;;;;;22.21;38.78;95094.94;2066619;28;1074;-66
2022/04/16 03:37:20;;;;;;;;;;;;;;;22.20;38.96;95095.97;2074437;28;1093;-66
2022/04/16 03:38:21;;;;;;;;;;;;;;;22.22;38.73;95104.59;2074599;28;1164;-66
2022/04/16 03:39:23;;;;;;;;;;;;;;;22.21;38.74;95097.63;2075061;28;1692;-66
2022/04/16 03:40:26;;;;;;;;;;;;;;;22.20;38.71;95099.47;2069555;28;1898;-67
2022/04/16 03:41:28;;;;;;;;;;;;;;;22.20;38.87;95101.34;2065031;28;1670;-68
2022/04/16 03:42:31;;;;;;;;;;;;;;;22.24;38.73;95107.88;2066599;28;975;-68
2022/04/16 03:43:33;;;;;;;;;;;;;;;22.24;38.81;95105.19;2067344;28;1510;-67
2022/04/16 03:44:34;;;;;;;;;;;;;;;22.24;38.67;95105.19;2067860;28;1675;-68
2022/04/16 03:45:36;;;;;;;;;;;;;;;21.88;30.98;95101.34;2066063;28;1555;-69
2022/04/16 03:46:38;;;;;;;;;;;;;;;21.40;31.56;95101.88;2066800;28;1508;-67
2022/04/16 03:47:39;;;;;;;;;;;;;;;21.42;33.65;95110.50;2058126;28;1684;-67
2022/04/16 03:48:43;;;;;;;;;;;;;;;21.50;34.61;95107.56;2058226;28;1018;-67
2022/04/16 03:49:44;;;;;;;;;;;;;;;21.59;35.27;95106.28;2065570;28;1656;-67
2022/04/16 03:50:46;;;;;;;;;;;;;;;21.68;36.25;95107.69;2066541;28;1659;-68
2022/04/16 03:51:47;;;;;;;;;;;;;;;21.76;36.55;95114.59;2071110;28;1788;-69
2022/04/16 03:52:49;;;;;;;;;;;;;;;21.81;36.29;95111.28;2068724;28;1619;-67
2022/04/16 03:53:51;;;;;;;;;;;;;;;21.84;36.46;95111.66;2066028;28;1066;-67
2022/04/16 03:59:59;;;;;;;;;;;;;;;21.96;36.41;95121.69;2066632;28;1643;-67
2022/04/16 04:00:17;;;;;;;;;;;;;;;21.97;36.26;95126.00;2065932;28;1914;-67
2022/04/16 04:01:19;;;;;;;;;;;;;;;21.98;36.31;95125.78;2066940;28;1723;-67
2022/04/16 04:02:20;;;;;;;;;;;;;;;22.00;36.34;95123.72;2057660;28;1080;-66
2022/04/16 04:03:22;;;;;;;;;;;;;;;21.99;36.24;95129.28;2053887;28;1064;-66
2022/04/16 04:04:24;;;;;;;;;;;;;;;22.01;36.47;95129.88;2061869;28;1309;-66
2022/04/16 04:05:26;;;;;;;;;;;;;;;22.02;36.49;95135.00;2066337;28;1118;-66
2022/04/16 04:06:27;;;;;;;;;;;;;;;22.03;36.31;95136.66;2066933;28;1726;-66
2022/04/16 04:07:29;;;;;;;;;;;;;;;22.04;36.45;95132.94;2070665;28;1644;-66
2022/04/16 04:08:31;;;;;;;;;;;;;;;22.04;36.30;95132.94;2065377;28;1144;-68
2022/04/16 04:09:32;;;;;;;;;;;;;;;22.02;36.33;95134.19;2065699;28;1681;-66
2022/04/16 04:10:35;;;;;;;;;;;;;;;22.02;36.47;95126.97;2074073;28;1723;-67
2022/04/16 04:11:36;;;;;;;;;;;;;;;22.03;36.53;95135.84;2065745;28;1172;-68
2022/04/16 04:12:38;;;;;;;;;;;;;;;21.79;28.81;95140.09;2066204;28;1050;-69
2022/04/16 04:13:40;;;;;;;;;;;;;;;20.21;27.71;95133.22;2074292;28;1077;-68
2022/04/16 04:14:42;;;;;;;;;;;;;;;19.40;28.91;95136.78;2069764;28;1060;-74
2022/04/16 04:15:44;;;;;;;;;;;;;;;18.98;29.61;95136.03;2060713;28;1136;-66
2022/04/16 04:16:46;;;;;;;;;;;;;;;18.59;29.26;95138.47;2065971;28;1109;-66
2022/04/16 04:17:48;;;;;;;;;;;;;;;18.19;30.38;95136.38;2074341;28;1219;-66
2022/04/16 04:18:50;;;;;;;;;;;;;;;17.99;31.79;95138.06;2074246;28;998;-70
2022/04/16 04:19:55;;;;;;;;;;;;;;;18.28;30.98;95142.38;2070475;28;1046;-64
2022/04/16 04:20:57;;;;;;;;;;;;;;;18.35;30.84;95143.22;2067133;28;1902;-68
2022/04/16 04:21:58;;;;;;;;;;;;;;;18.48;30.52;95137.19;2065687;28;1205;-67
2022/04/16 04:23:00;;;;;;;;;;;;;;;18.32;30.07;95136.47;2066210;28;1726;-66
2022/04/16 04:24:02;;;;;;;;;;;;;;;18.28;29.67;95142.38;2066512;28;1051;-68
2022/04/16 04:25:03;;;;;;;;;;;;;;;18.46;29.50;95144.53;2066370;28;1718;-68
2022/04/16 04:26:05;;;;;;;;;;;;;;;18.20;29.45;95139.84;2061344;28;947;-67
2022/04/16 04:27:07;;;;;;;;;;;;;;;18.26;29.78;95144.38;2061265;28;1317;-67
2022/04/16 04:28:08;;;;;;;;;;;;;;;18.12;29.62;95138.16;2066097;28;986;-67
2022/04/16 04:29:10;;;;;;;;;;;;;;;17.87;30.25;95146.56;2060378;28;1705;-68
2022/04/16 04:30:12;;;;;;;;;;;;;;;17.87;30.41;95133.25;2063720;28;1315;-67
2022/04/16 04:31:14;;;;;;;;;;;;;;;17.87;30.31;95143.91;2065656;28;1343;-67
2022/04/16 04:32:15;;;;;;;;;;;;;;;18.02;30.07;95137.66;2058016;28;1547;-67
2022/04/16 04:33:17;;;;;;;;;;;;;;;17.89;30.13;95143.69;2058049;28;1113;-68
2022/04/16 04:34:19;;;;;;;;;;;;;;;17.77;30.17;95145.22;2065518;28;1046;-67
2022/04/16 04:35:21;;;;;;;;;;;;;;;17.75;29.87;95139.25;2065443;28;1698;-66
2022/04/16 04:36:24;;;;;;;;;;;;;;;17.70;30.34;95144.28;2057974;28;1640;-66
2022/04/16 04:37:27;;;;;;;;;;;;;;;17.69;30.32;95142.66;2061152;28;1438;-66
2022/04/16 04:38:29;;;;;;;;;;;;;;;17.69;30.32;95146.13;2061221;28;1165;-66
2022/04/16 04:39:30;;;;;;;;;;;;;;;17.61;30.34;95146.25;2058274;28;1691;-66
2022/04/16 04:40:32;;;;;;;;;;;;;;;17.66;30.41;95151.81;2058868;28;1502;-68
2022/04/16 04:41:34;;;;;;;;;;;;;;;17.64;30.73;95152.03;2057918;28;1906;-66
2022/04/16 04:42:36;;;;;;;;;;;;;;;17.70;30.81;95154.91;2064125;28;1464;-66
2022/04/16 04:43:37;;;;;;;;;;;;;;;17.60;30.86;95156.06;2065930;28;1184;-67
2022/04/16 04:44:39;;;;;;;;;;;;;;;17.56;30.47;95154.81;2065843;28;1047;-67
2022/04/16 04:45:41;;;;;;;;;;;;;;;17.41;30.56;95151.38;2057303;28;1109;-66
2022/04/16 04:46:43;;;;;;;;;;;;;;;17.37;30.89;95160.72;2057579;28;1435;-67
2022/04/16 04:47:44;;;;;;;;;;;;;;;17.23;31.25;95161.59;2066088;28;1323;-67
2022/04/16 04:48:46;;;;;;;;;;;;;;;17.26;31.15;95166.53;2057873;28;1750;-66
2022/04/16 04:49:48;;;;;;;;;;;;;;;17.20;30.78;95163.59;2060791;28;1497;-66
2022/04/16 04:50:49;;;;;;;;;;;;;;;17.12;31.10;95161.06;2065839;28;2045;-67
2022/04/16 04:51:51;;;;;;;;;;;;;;;17.19;31.19;95161.16;2067828;28;1668;-66
2022/04/16 04:52:52;;;;;;;;;;;;;;;17.04;31.03;95161.16;2074077;28;1105;-67
2022/04/16 04:53:54;;;;;;;;;;;;;;;16.95;31.38;95156.97;2070271;28;1112;-67
2022/04/16 04:55:00;;;;;;;;;;;;;;;16.51;31.47;95157.78;2065936;28;1655;-65
2022/04/16 04:56:01;;;;;;;;;;;;;;;16.22;31.86;95166.56;2066577;28;1694;-66
2022/04/16 04:57:03;;;;;;;;;;;;;;;15.89;32.71;95166.00;2059853;28;1685;-66
2022/04/16 04:58:05;;;;;;;;;;;;;;;15.97;33.15;95173.91;2057578;28;1055;-66
2022/04/16 04:59:06;;;;;;;;;;;;;;;16.03;33.04;95173.19;2065523;28;1562;-66
2022/04/16 05:00:09;;;;;;;;;;;;;;;16.13;33.12;95172.91;2063474;28;1702;-66
2022/04/16 05:01:11;;;;;;;;;;;;;;;16.19;33.20;95175.69;2059971;28;1982;-66
2022/04/16 05:02:12;;;;;;;;;;;;;;;15.99;33.05;95175.38;2065851;28;1496;-65
2022/04/16 05:03:14;;;;;;;;;;;;;;;15.86;33.35;95177.78;2066192;28;1029;-65
2022/04/16 05:04:15;;;;;;;;;;;;;;;15.91;33.62;95179.91;2065913;28;1079;-66
2022/04/16 05:05:18;;;;;;;;;;;;;;;15.91;33.85;95170.13;2065968;28;1504;-66
2022/04/16 05:06:19;;;;;;;;;;;;;;;15.96;33.16;95172.22;2062255;28;1668;-66
2022/04/16 05:07:21;;;;;;;;;;;;;;;15.77;32.99;95176.22;2057021;28;990;-66
2022/04/16 05:08:22;;;;;;;;;;;;;;;15.83;33.79;95178.16;2049377;28;1071;-65
2022/04/16 05:09:24;;;;;;;;;;;;;;;16.04;33.73;95172.16;2057944;28;1653;-65
2022/04/16 05:10:25;;;;;;;;;;;;;;;16.17;33.68;95167.09;2057351;28;1742;-66
2022/04/16 05:11:27;;;;;;;;;;;;;;;16.17;33.45;95167.09;2061669;28;1714;-66
2022/04/16 05:12:29;;;;;;;;;;;;;;;16.16;33.83;95168.09;2058755;28;1782;-63
2022/04/16 05:13:30;;;;;;;;;;;;;;;16.60;33.42;95162.00;2049067;28;1131;-65
2022/04/16 05:14:32;;;;;;;;;;;;;;;16.69;33.08;95168.84;2056906;28;1098;-64
2022/04/16 05:15:33;;;;;;;;;;;;;;;16.75;33.34;95162.00;2060703;28;1758;-65
2022/04/16 05:16:35;;;;;;;;;;;;;;;17.07;33.36;95171.44;2065087;28;1510;-63
2022/04/16 05:17:37;;;;;;;;;;;;;;;17.13;33.18;95162.72;2068806;28;1629;-64
2022/04/16 05:18:42;;;;;;;;;;;;;;;17.83;32.70;95158.56;2062469;28;1558;-68
2022/04/16 05:19:44;;;;;;;;;;;;;;;17.81;32.48;95162.41;2065486;28;1113;-63
2022/04/16 05:20:45;;;;;;;;;;;;;;;17.53;32.16;95162.34;2073797;28;1159;-62
2022/04/16 05:21:47;;;;;;;;;;;;;;;17.59;33.31;95148.31;2064072;28;2026;-68
2022/04/16 05:22:49;;;;;;;;;;;;;;;17.84;32.49;95151.41;2061077;28;1085;-68
2022/04/16 05:23:50;;;;;;;;;;;;;;;17.38;32.43;95146.44;2068639;28;1694;-64
2022/04/16 05:24:52;;;;;;;;;;;;;;;17.04;32.83;95149.72;2073192;28;1718;-63
2022/04/16 05:25:53;;;;;;;;;;;;;;;17.01;35.08;95156.22;2066020;28;1077;-69
2022/04/16 05:26:55;;;;;;;;;;;;;;;16.99;34.55;95152.94;2066828;28;1834;-70
2022/04/16 05:27:56;;;;;;;;;;;;;;;16.64;34.65;95150.00;2069852;28;1040;-66
2022/04/16 05:28:58;;;;;;;;;;;;;;;16.59;34.75;95152.41;2066665;28;1658;-67
2022/04/16 05:31:24;;;;;;;;;;;;;;;16.29;35.19;95147.06;2067956;28;1674;-66
2022/04/16 05:32:31;;;;;;;;;;;;;;;16.13;34.48;95144.56;2065012;28;1114;-71
2022/04/16 05:34:54;;;;;;;;;;;;;;;15.81;35.16;95154.47;2056899;28;1456;-72
2022/04/16 05:35:56;;;;;;;;;;;;;;;15.83;35.14;95157.78;2058926;28;1560;-65
2022/04/16 05:36:57;;;;;;;;;;;;;;;15.90;35.23;95152.56;2058881;28;1484;-65
2022/04/16 05:37:59;;;;;;;;;;;;;;;15.78;34.47;95161.94;2065816;28;1016;-62
2022/04/16 05:39:03;;;;;;;;;;;;;;;15.66;35.01;95163.34;2065974;28;1645;-62
2022/04/16 05:40:05;;;;;;;;;;;;;;;15.63;35.18;95157.41;2065298;28;1060;-68